Terminal Aerodrome Forecast
Issued by NWS Sterling, VA

Current Version | Previous Version | Text Only | Print | Product List | Glossary Off
Versions: 1 2 3 4 5 6 7 8 9 10 11 12 13 14 15 16 17 18 19 20 21 22 23 24

000
FTUS41 KLWX 210520
TAFIAD
TAF
KIAD 210520Z 2106/2212 13006KT P6SM OVC035
     FM211800 14009KT P6SM BKN045
     FM220000 14008KT P6SM OVC025
     FM220300 14008KT P6SM OVC010
     FM220600 15004KT 3SM -RA OVC010=

USA.gov is the U.S. government's official web portal to all federal, state and local government web resources and services.